createdAt,value
2018-12-07T00:01:17.855Z,2.50
2018-12-07T00:03:50.022Z,2.97
2018-12-07T00:06:25.623Z,2.67
2018-12-07T00:08:57.789Z,2.97
2018-12-07T00:11:28.119Z,2.27
2018-12-07T00:14:00.218Z,2.73
2018-12-07T00:16:41.118Z,2.03
2018-12-07T00:19:20.070Z,2.53
2018-12-07T00:21:55.362Z,2.20
2018-12-07T00:24:27.846Z,2.30
2018-12-07T00:27:06.568Z,2.67
2018-12-07T00:29:47.928Z,2.47
2018-12-07T00:32:28.822Z,2.40
2018-12-07T00:35:04.433Z,2.20
2018-12-07T00:37:45.930Z,2.30
2018-12-07T00:40:27.019Z,2.47
2018-12-07T00:42:59.049Z,2.40
2018-12-07T00:45:33.510Z,1.93
2018-12-07T00:48:04.237Z,2.17
2018-12-07T00:50:45.049Z,2.20
2018-12-07T00:53:17.049Z,2.10
2018-12-07T00:55:58.042Z,2.33
2018-12-07T00:58:39.041Z,2.40
2018-12-07T01:01:17.654Z,2.43
2018-12-07T01:03:54.817Z,2.40
2018-12-07T01:06:27.417Z,3.27
2018-12-07T01:09:08.470Z,2.63
2018-12-07T01:11:50.471Z,2.83
2018-12-07T01:14:31.338Z,2.33
2018-12-07T01:17:12.276Z,2.90
2018-12-07T01:19:46.947Z,2.30
2018-12-07T01:22:28.338Z,2.43
2018-12-07T01:25:11.102Z,2.50
2018-12-07T01:27:45.773Z,2.37
2018-12-07T01:30:20.243Z,2.00
2018-12-07T01:32:52.823Z,2.50
2018-12-07T01:35:33.649Z,2.20
2018-12-07T01:38:14.697Z,3.10
2018-12-07T01:40:49.271Z,2.87
2018-12-07T01:43:22.068Z,3.30
2018-12-07T01:45:54.001Z,2.50
2018-12-07T01:48:26.274Z,2.40
2018-12-07T01:51:07.406Z,2.60
2018-12-07T01:53:39.742Z,2.60
2018-12-07T01:56:20.781Z,2.00
2018-12-07T01:59:01.685Z,2.20
2018-12-07T02:01:42.678Z,2.60
2018-12-07T02:04:14.737Z,2.80
2018-12-07T02:06:55.727Z,2.27
2018-12-07T02:09:37.102Z,2.50
2018-12-07T02:12:18.223Z,2.43
2018-12-07T02:14:59.375Z,2.40
2018-12-07T02:17:37.957Z,2.57
2018-12-07T02:20:19.311Z,2.13
2018-12-07T02:22:51.370Z,2.23
2018-12-07T02:25:32.414Z,2.60
2018-12-07T02:28:04.682Z,2.77
2018-12-07T02:30:45.501Z,2.07
2018-12-07T02:33:20.118Z,2.40
2018-12-07T02:35:50.961Z,2.60
2018-12-07T02:38:26.142Z,2.70
2018-12-07T02:40:57.072Z,2.73
2018-12-07T02:43:29.110Z,2.30
2018-12-07T02:46:10.021Z,2.13
2018-12-07T02:48:51.165Z,2.20
2018-12-07T02:51:32.447Z,2.10
2018-12-07T02:54:04.631Z,2.23
2018-12-07T02:56:45.319Z,1.53
2018-12-07T02:59:26.406Z,1.77
2018-12-07T03:02:07.544Z,1.23
2018-12-07T03:04:48.446Z,1.83
2018-12-07T03:07:22.928Z,1.83
2018-12-07T03:09:59.826Z,1.50
2018-12-07T03:12:34.122Z,2.20
2018-12-07T03:15:15.732Z,1.77
2018-12-07T03:17:50.004Z,1.33
2018-12-07T03:20:31.472Z,1.67
2018-12-07T03:23:03.722Z,1.40
2018-12-07T03:25:44.772Z,1.50
2018-12-07T03:28:25.665Z,1.43
2018-12-07T03:31:00.367Z,1.63
2018-12-07T03:33:33.033Z,1.70
2018-12-07T03:36:14.058Z,1.30
2018-12-07T03:38:46.693Z,1.87
2018-12-07T03:41:18.658Z,1.87
2018-12-07T03:43:50.711Z,1.43
2018-12-07T03:46:32.646Z,1.90
2018-12-07T03:49:13.515Z,1.97
2018-12-07T03:51:54.453Z,2.47
2018-12-07T03:54:26.411Z,2.10
2018-12-07T03:56:58.452Z,1.60
2018-12-07T03:59:39.691Z,1.63
2018-12-07T04:02:20.615Z,1.80
2018-12-07T04:05:01.591Z,1.63
2018-12-07T04:07:42.578Z,1.83
2018-12-07T04:10:23.411Z,2.37
2018-12-07T04:12:57.826Z,2.17
2018-12-07T04:15:39.526Z,3.67
2018-12-07T04:18:20.690Z,6.73
2018-12-07T04:21:01.766Z,4.57
2018-12-07T04:23:42.784Z,3.40
2018-12-07T04:26:17.422Z,3.80
2018-12-07T04:28:52.494Z,3.90
2018-12-07T04:31:23.254Z,3.30
2018-12-07T04:33:55.207Z,4.33
2018-12-07T04:36:36.159Z,4.40
2018-12-07T04:39:17.163Z,1.10
2018-12-07T04:41:58.376Z,1.70
2018-12-07T04:44:30.629Z,1.60
2018-12-07T04:47:02.795Z,1.30
2018-12-07T04:49:43.822Z,1.30
2018-12-07T04:52:24.795Z,3.33
2018-12-07T04:55:05.984Z,5.57
2018-12-07T04:57:46.967Z,3.77
2018-12-07T05:00:27.902Z,2.70
2018-12-07T05:03:02.358Z,1.93
2018-12-07T05:05:33.245Z,1.70
2018-12-07T05:08:08.426Z,1.70
2018-12-07T05:10:43.610Z,2.00
2018-12-07T05:13:18.807Z,2.17
2018-12-07T05:15:49.491Z,2.53
2018-12-07T05:18:23.882Z,2.97
2018-12-07T05:21:05.451Z,2.67
2018-12-07T05:23:39.901Z,2.73
2018-12-07T05:26:10.462Z,2.60
2018-12-07T05:28:47.070Z,2.70
2018-12-07T05:31:23.356Z,2.43
2018-12-07T05:33:55.354Z,1.80
2018-12-07T05:36:30.138Z,2.60
2018-12-07T05:39:06.183Z,1.70
2018-12-07T05:41:38.730Z,1.40
2018-12-07T05:44:08.974Z,1.23
2018-12-07T05:46:50.171Z,1.70
2018-12-07T05:49:22.632Z,1.57
2018-12-07T05:51:54.918Z,1.20
2018-12-07T05:54:27.098Z,1.47
2018-12-07T05:56:59.692Z,1.13
2018-12-07T05:59:32.426Z,1.67
2018-12-07T06:04:36.760Z,1.43
2018-12-07T06:07:17.761Z,1.70
2018-12-07T06:12:49.666Z,1.43
2018-12-07T06:15:30.782Z,1.47
2018-12-07T06:18:09.461Z,1.47
2018-12-07T06:20:44.454Z,1.33
2018-12-07T06:23:14.997Z,2.00
2018-12-07T06:25:50.533Z,1.80
2018-12-07T06:28:23.170Z,2.17
2018-12-07T06:30:55.465Z,2.20
2018-12-07T06:33:27.590Z,2.43
2018-12-07T06:36:08.487Z,2.60
2018-12-07T06:38:41.030Z,2.37
2018-12-07T06:41:15.469Z,2.60
2018-12-07T06:43:46.098Z,2.50
2018-12-07T06:46:20.798Z,3.03
2018-12-07T06:49:04.436Z,2.27
2018-12-07T06:51:34.891Z,1.90
2018-12-07T06:54:06.974Z,2.13
2018-12-07T06:56:48.010Z,1.90
2018-12-07T06:59:29.046Z,1.93
2018-12-07T07:02:01.202Z,1.60
2018-12-07T07:04:33.238Z,1.53
2018-12-07T07:07:05.575Z,1.40
2018-12-07T07:09:46.723Z,1.50
2018-12-07T07:12:35.928Z,1.00
2018-12-07T07:15:08.006Z,0.97
2018-12-07T07:17:39.841Z,1.03
2018-12-07T07:20:20.923Z,1.10
2018-12-07T07:22:57.682Z,1.13
2018-12-07T07:25:30.546Z,1.23
2018-12-07T07:28:03.399Z,1.53
2018-12-07T07:30:44.100Z,1.87
2018-12-07T07:33:16.152Z,4.00
2018-12-07T07:35:50.866Z,3.07
2018-12-07T07:38:26.055Z,3.20
2018-12-07T07:40:58.868Z,3.60
2018-12-07T07:43:31.010Z,2.53
2018-12-07T07:46:03.082Z,2.60
2018-12-07T07:48:37.682Z,2.53
2018-12-07T07:51:12.794Z,1.87
2018-12-07T07:53:43.334Z,1.60
2018-12-07T07:56:24.198Z,1.70
2018-12-07T07:59:05.236Z,1.17
2018-12-07T08:01:39.842Z,1.10
2018-12-07T08:04:14.801Z,1.27
2018-12-07T08:09:19.487Z,2.10
2018-12-07T08:11:52.272Z,1.43
2018-12-07T08:14:30.834Z,2.07
2018-12-07T08:17:06.145Z,2.10
2018-12-07T08:19:41.040Z,2.17
2018-12-07T08:22:16.042Z,1.80
2018-12-07T08:24:57.631Z,1.67
2018-12-07T08:27:29.686Z,1.53
2018-12-07T08:30:10.605Z,1.43
2018-12-07T08:32:45.372Z,1.20
2018-12-07T08:35:20.635Z,1.60
2018-12-07T08:37:53.161Z,1.37
2018-12-07T08:40:27.751Z,1.40
2018-12-07T08:43:00.105Z,1.33
2018-12-07T08:45:32.857Z,1.50
2018-12-07T08:48:07.354Z,1.47
2018-12-07T08:50:40.094Z,1.77
2018-12-07T08:53:14.693Z,2.60
2018-12-07T08:55:49.944Z,1.60
2018-12-07T08:58:22.671Z,1.47
2018-12-07T09:01:04.080Z,3.13
2018-12-07T09:03:36.199Z,1.60
2018-12-07T09:06:10.727Z,2.97
2018-12-07T09:13:50.712Z,1.70
2018-12-07T09:16:26.747Z,1.87
2018-12-07T09:19:01.870Z,2.20
2018-12-07T09:21:45.490Z,2.47
2018-12-07T09:24:17.529Z,1.50
2018-12-07T09:26:58.506Z,1.23
2018-12-07T09:29:30.470Z,1.00
2018-12-07T09:32:02.652Z,1.30
2018-12-07T09:34:35.038Z,1.20
2018-12-07T09:37:07.171Z,1.20
2018-12-07T09:39:42.040Z,0.80
2018-12-07T09:42:14.559Z,1.00
2018-12-07T09:44:46.708Z,0.90
2018-12-07T09:47:25.206Z,1.10
2018-12-07T09:50:00.054Z,0.80
2018-12-07T09:52:32.910Z,0.97
2018-12-07T09:55:12.078Z,1.10
2018-12-07T09:57:46.966Z,1.17
2018-12-07T10:00:18.078Z,1.20
2018-12-07T10:02:53.194Z,0.80
2018-12-07T10:05:25.854Z,0.80
2018-12-07T10:08:00.442Z,0.90
2018-12-07T10:10:42.108Z,0.70
2018-12-07T10:13:14.423Z,0.90
2018-12-07T10:15:46.522Z,1.10
2018-12-07T10:18:20.922Z,0.90
2018-12-07T10:20:53.557Z,0.90
2018-12-07T10:23:34.471Z,0.87
2018-12-07T10:26:06.723Z,1.10
2018-12-07T10:28:41.518Z,0.73
2018-12-07T10:31:22.946Z,0.70
2018-12-07T10:33:55.121Z,0.80
2018-12-07T10:36:29.802Z,0.50
2018-12-07T10:39:09.051Z,0.80
2018-12-07T10:41:44.210Z,1.03
2018-12-07T10:44:25.702Z,0.80
2018-12-07T10:47:00.522Z,0.90
2018-12-07T10:49:36.700Z,1.20
2018-12-07T10:52:09.733Z,0.67
2018-12-07T10:54:40.182Z,0.80
2018-12-07T10:57:21.394Z,1.00
2018-12-07T11:00:04.363Z,1.00
2018-12-07T11:02:44.143Z,1.07
2018-12-07T11:06:30.138Z,0.90
2018-12-07T11:09:06.225Z,1.30
2018-12-07T11:11:53.468Z,0.63
2018-12-07T11:17:13.671Z,0.93
2018-12-07T11:19:49.113Z,1.03
2018-12-07T11:22:29.295Z,1.10
2018-12-07T11:25:15.395Z,0.70
2018-12-07T11:27:55.764Z,0.83
2018-12-07T11:30:44.984Z,1.10
2018-12-07T11:33:39.144Z,0.90
2018-12-07T11:36:11.541Z,0.87
2018-12-07T11:38:54.586Z,0.90
2018-12-07T11:41:45.731Z,0.97
2018-12-07T11:44:22.171Z,1.23
2018-12-07T11:47:03.599Z,0.83
2018-12-07T11:49:44.735Z,1.00
2018-12-07T11:52:25.899Z,1.00
2018-12-07T11:55:00.410Z,1.00
2018-12-07T11:57:42.054Z,1.07
2018-12-07T12:00:16.808Z,1.07
2018-12-07T12:02:57.512Z,1.00
2018-12-07T12:05:29.817Z,0.87
2018-12-07T12:08:01.905Z,1.30
2018-12-07T12:10:34.139Z,1.00
2018-12-07T12:13:16.148Z,0.70
2018-12-07T12:15:57.294Z,0.80
2018-12-07T12:18:32.019Z,1.37
2018-12-07T12:21:13.790Z,0.70
2018-12-07T12:23:53.427Z,0.80
2018-12-07T12:26:29.979Z,0.90
2018-12-07T12:29:01.951Z,1.00
2018-12-07T12:31:43.072Z,1.60
2018-12-07T12:34:17.754Z,1.10
2018-12-07T12:36:53.070Z,0.90
2018-12-07T12:39:34.198Z,0.80
2018-12-07T12:42:15.495Z,1.23
2018-12-07T12:44:50.190Z,0.80
2018-12-07T12:47:25.061Z,1.10
2018-12-07T12:50:00.507Z,1.13
2018-12-07T12:52:32.375Z,1.20
2018-12-07T12:55:04.787Z,1.17
2018-12-07T12:57:39.281Z,1.80
2018-12-07T13:00:10.147Z,1.57
2018-12-07T13:02:49.690Z,1.00
2018-12-07T13:05:25.196Z,1.03
2018-12-07T13:08:00.989Z,1.33
2018-12-07T13:10:33.654Z,0.70
2018-12-07T13:13:05.935Z,0.40
2018-12-07T13:15:40.614Z,0.70
2018-12-07T13:18:15.755Z,0.60
2018-12-07T13:20:54.837Z,0.60
2018-12-07T13:23:25.514Z,0.50
2018-12-07T13:25:57.675Z,0.47
2018-12-07T13:28:32.449Z,0.43
2018-12-07T13:31:05.284Z,0.90
2018-12-07T13:33:37.373Z,0.60
2018-12-07T13:36:09.441Z,0.90
2018-12-07T13:38:50.515Z,1.13
2018-12-07T13:41:21.410Z,0.83
2018-12-07T13:43:53.556Z,1.00
2018-12-07T13:46:28.535Z,0.57
2018-12-07T13:49:00.975Z,0.50
2018-12-07T13:51:34.056Z,0.60
2018-12-07T13:54:06.554Z,0.80
2018-12-07T13:56:47.468Z,1.00
2018-12-07T13:59:29.498Z,0.60
2018-12-07T14:02:01.684Z,0.70
2018-12-07T14:04:33.806Z,1.00
2018-12-07T14:07:14.978Z,0.60
2018-12-07T14:09:49.366Z,0.70
2018-12-07T14:12:20.168Z,0.83
2018-12-07T14:14:52.078Z,1.00
2018-12-07T14:17:34.159Z,0.80
2018-12-07T14:20:15.271Z,0.80
2018-12-07T14:22:56.321Z,0.70
2018-12-07T14:25:30.821Z,0.60
2018-12-07T14:28:12.232Z,0.70
2018-12-07T14:30:53.200Z,0.70
2018-12-07T14:33:27.690Z,0.80
2018-12-07T14:36:09.328Z,0.57
2018-12-07T14:38:41.446Z,0.50
2018-12-07T14:41:23.290Z,0.60
2018-12-07T14:43:55.363Z,1.90
2018-12-07T14:46:35.032Z,0.80
2018-12-07T14:49:10.155Z,1.10
2018-12-07T14:51:50.975Z,1.10
2018-12-07T14:54:23.165Z,0.70
2018-12-07T14:56:55.410Z,0.67
2018-12-07T14:59:36.581Z,0.60
2018-12-07T15:02:15.185Z,0.50
2018-12-07T15:04:54.345Z,0.83
2018-12-07T15:07:29.381Z,1.20
2018-12-07T15:10:04.470Z,1.93
2018-12-07T15:12:36.100Z,1.33
2018-12-07T15:15:10.577Z,1.40
2018-12-07T15:17:42.881Z,1.73
2018-12-07T15:20:15.071Z,1.27
2018-12-07T15:22:47.485Z,1.53
2018-12-07T15:25:28.259Z,1.10
2018-12-07T15:28:03.003Z,1.00
2018-12-07T15:30:38.021Z,1.60
2018-12-07T15:33:13.271Z,2.80
2018-12-07T15:35:45.825Z,2.67
2018-12-07T15:38:20.562Z,3.47
2018-12-07T15:41:02.176Z,3.23
2018-12-07T15:43:34.457Z,4.97
2018-12-07T15:46:09.779Z,4.23
2018-12-07T15:48:51.289Z,2.07
2018-12-07T15:51:32.378Z,1.70
2018-12-07T15:54:07.549Z,1.70
2018-12-07T15:56:38.664Z,1.20
2018-12-07T15:59:19.819Z,1.80
2018-12-07T16:01:54.931Z,0.90
2018-12-07T16:04:30.230Z,1.20
2018-12-07T16:07:07.469Z,1.10
2018-12-07T16:09:38.638Z,1.60
2018-12-07T16:12:13.961Z,1.90
2018-12-07T16:14:48.960Z,2.30
2018-12-07T16:17:23.566Z,1.80
2018-12-07T16:19:56.074Z,1.40
2018-12-07T16:22:27.148Z,1.50
2018-12-07T16:25:08.128Z,1.83
2018-12-07T16:27:49.072Z,2.20
2018-12-07T16:30:30.746Z,3.10
2018-12-07T16:33:03.079Z,2.50
2018-12-07T16:35:37.670Z,2.80
2018-12-07T16:38:10.174Z,2.67
2018-12-07T16:40:42.507Z,3.13
2018-12-07T16:43:17.097Z,2.90
2018-12-07T16:45:52.091Z,2.70
2018-12-07T16:48:23.059Z,2.90
2018-12-07T16:50:55.177Z,2.37
2018-12-07T16:53:27.358Z,1.73
2018-12-07T16:56:05.943Z,1.60
2018-12-07T16:58:38.769Z,1.97
2018-12-07T17:01:19.767Z,1.43
2018-12-07T17:03:52.263Z,1.33
2018-12-07T17:06:26.714Z,1.50
2018-12-07T17:09:01.963Z,1.70
2018-12-07T17:11:37.269Z,1.90
2018-12-07T17:14:18.997Z,2.80
2018-12-07T17:16:51.324Z,1.60
2018-12-07T17:19:26.781Z,1.40
2018-12-07T17:22:05.557Z,1.67
2018-12-07T17:24:37.477Z,1.30
2018-12-07T17:27:12.179Z,1.30
2018-12-07T17:29:45.491Z,1.10
2018-12-07T17:32:20.592Z,1.10
2018-12-07T17:34:50.988Z,1.00
2018-12-07T17:37:25.410Z,0.97
2018-12-07T17:39:58.552Z,1.20
2018-12-07T17:42:30.679Z,1.27
2018-12-07T17:45:06.604Z,1.03
2018-12-07T17:47:38.504Z,1.20
2018-12-07T17:50:19.963Z,1.13
2018-12-07T17:52:52.048Z,1.00
2018-12-07T17:55:24.077Z,1.20
2018-12-07T17:57:56.332Z,1.47
2018-12-07T18:00:36.925Z,1.27
2018-12-07T18:03:18.527Z,1.50
2018-12-07T18:05:53.165Z,1.27
2018-12-07T18:08:28.477Z,1.33
2018-12-07T18:11:02.129Z,1.43
2018-12-07T18:13:32.922Z,2.03
2018-12-07T18:16:08.497Z,1.47
2018-12-07T18:18:49.206Z,1.73
2018-12-07T18:21:30.453Z,1.60
2018-12-07T18:24:01.309Z,1.70
2018-12-07T18:26:43.808Z,1.60
2018-12-07T18:29:19.673Z,1.70
2018-12-07T18:31:54.484Z,1.50
2018-12-07T18:34:29.462Z,1.43
2018-12-07T18:40:04.761Z,2.10
2018-12-07T18:42:39.475Z,1.77
2018-12-07T18:45:10.422Z,2.13
2018-12-07T18:47:58.072Z,2.60
2018-12-07T18:50:33.513Z,2.40
2018-12-07T18:53:24.179Z,2.03
2018-12-07T18:55:59.737Z,2.87
2018-12-07T18:58:41.236Z,2.17
2018-12-07T19:01:13.359Z,2.30
2018-12-07T19:03:48.209Z,1.80
2018-12-07T19:06:29.547Z,2.30
2018-12-07T19:09:08.863Z,1.80
2018-12-07T19:11:45.307Z,3.70
2018-12-07T19:14:20.409Z,2.40
2018-12-07T19:16:59.573Z,2.53
2018-12-07T19:19:30.697Z,2.27
2018-12-07T19:22:05.959Z,2.60
2018-12-07T19:24:42.737Z,2.17
2018-12-07T19:27:23.765Z,2.53
2018-12-07T19:29:55.925Z,2.57
2018-12-07T19:32:30.550Z,2.40
2018-12-07T19:35:04.019Z,2.33
2018-12-07T19:37:36.077Z,1.90
2018-12-07T19:40:08.678Z,2.20
2018-12-07T19:42:41.381Z,2.27
2018-12-07T19:45:16.033Z,2.40
2018-12-07T19:47:50.381Z,2.40
2018-12-07T19:50:22.723Z,2.60
2018-12-07T19:52:56.115Z,2.13
2018-12-07T19:55:35.566Z,3.07
2018-12-07T19:58:08.557Z,2.70
2018-12-07T20:00:43.878Z,2.90
2018-12-07T20:03:18.488Z,3.33
2018-12-07T20:05:51.217Z,2.67
2018-12-07T20:08:23.363Z,2.73
2018-12-07T20:10:55.477Z,3.50
2018-12-07T20:13:30.619Z,2.60
2018-12-07T20:16:12.270Z,3.37
2018-12-07T20:18:53.166Z,2.57
2018-12-07T20:21:27.804Z,2.57
2018-12-07T20:23:58.615Z,3.27
2018-12-07T20:26:38.365Z,3.10
2018-12-07T20:29:10.806Z,3.07
2018-12-07T20:31:42.049Z,3.20
2018-12-07T20:34:17.189Z,3.33
2018-12-07T20:36:50.061Z,3.10
2018-12-07T20:39:24.700Z,3.03
2018-12-07T20:41:59.245Z,3.33
2018-12-07T20:44:31.886Z,3.37
2018-12-07T20:47:15.775Z,3.90
2018-12-07T20:49:46.475Z,4.33
2018-12-07T20:52:21.918Z,3.60
2018-12-07T20:55:01.369Z,3.80
2018-12-07T20:57:33.751Z,4.53
2018-12-07T21:00:08.962Z,3.93
2018-12-07T21:02:44.439Z,3.73
2018-12-07T21:06:44.528Z,3.00
2018-12-07T21:09:31.712Z,3.13
2018-12-07T21:12:33.198Z,3.30
2018-12-07T21:15:15.081Z,2.43
2018-12-07T21:17:51.344Z,2.63
2018-12-07T21:20:32.838Z,3.17
2018-12-07T21:23:05.164Z,3.00
2018-12-07T21:25:37.163Z,2.90
2018-12-07T21:28:15.674Z,2.27
2018-12-07T21:30:53.214Z,1.63
2018-12-07T21:33:38.300Z,1.70
2018-12-07T21:36:45.132Z,1.80
2018-12-07T21:39:32.771Z,1.63
2018-12-07T21:42:14.548Z,1.80
2018-12-07T21:44:48.976Z,1.80
2018-12-07T21:47:25.449Z,1.67
2018-12-07T21:50:03.065Z,1.53
2018-12-07T21:52:36.742Z,1.60
2018-12-07T21:55:07.342Z,1.40
2018-12-07T21:57:41.619Z,1.07
2018-12-07T22:00:23.265Z,1.40
2018-12-07T22:03:01.975Z,1.30
2018-12-07T22:05:32.210Z,1.63
2018-12-07T22:08:02.870Z,1.50
2018-12-07T22:10:43.953Z,1.40
2018-12-07T22:13:16.900Z,1.40
2018-12-07T22:15:57.746Z,0.90
2018-12-07T22:18:30.198Z,1.40
2018-12-07T22:21:11.209Z,1.00
2018-12-07T22:23:43.206Z,0.97
2018-12-07T22:26:24.930Z,1.03
2018-12-07T22:29:06.659Z,1.30
2018-12-07T22:31:41.134Z,1.10
2018-12-07T22:34:14.894Z,1.20
2018-12-07T22:36:55.992Z,1.40
2018-12-07T22:39:36.984Z,1.20
2018-12-07T22:42:12.653Z,1.33
2018-12-07T22:44:47.698Z,0.83
2018-12-07T22:47:22.453Z,1.13
2018-12-07T22:50:02.503Z,0.83
2018-12-07T22:52:33.071Z,1.00
2018-12-07T22:55:14.798Z,0.90
2018-12-07T22:57:55.702Z,1.03
2018-12-07T23:00:34.277Z,1.20
2018-12-07T23:03:08.158Z,1.00
2018-12-07T23:05:49.362Z,1.00
2018-12-07T23:08:30.267Z,0.80
2018-12-07T23:11:05.185Z,0.70
2018-12-07T23:16:38.039Z,0.90
2018-12-07T23:19:08.370Z,0.73
2018-12-07T23:21:49.378Z,0.73
2018-12-07T23:24:21.633Z,0.93
2018-12-07T23:26:56.250Z,0.87
2018-12-07T23:29:26.721Z,0.80
2018-12-07T23:32:07.895Z,0.67
2018-12-07T23:34:40.546Z,0.63
2018-12-07T23:37:21.651Z,1.00
2018-12-07T23:40:02.729Z,0.70
2018-12-07T23:42:34.964Z,0.60
2018-12-07T23:45:16.103Z,1.47
2018-12-07T23:47:56.922Z,0.97
2018-12-07T23:50:37.721Z,0.90
2018-12-07T23:53:09.809Z,0.87
2018-12-07T23:55:50.925Z,1.13
2018-12-07T23:58:23.114Z,0.70
